createdAt,value
2022-11-10T00:00:20.369Z,99.00
2022-11-10T00:02:48.619Z,99.20
2022-11-10T00:05:17.319Z,99.00
2022-11-10T00:07:45.431Z,98.90
2022-11-10T00:10:15.349Z,98.40
2022-11-10T00:12:44.674Z,98.10
2022-11-10T00:15:30.469Z,98.70
2022-11-10T00:17:58.482Z,98.50
2022-11-10T00:20:26.504Z,98.80
2022-11-10T00:22:56.067Z,98.40
2022-11-10T00:25:24.896Z,98.20
2022-11-10T00:27:54.258Z,97.90
2022-11-10T00:30:22.301Z,97.50
2022-11-10T00:32:50.314Z,97.90
2022-11-10T00:35:18.699Z,97.40
2022-11-10T00:37:46.966Z,94.70
2022-11-10T00:40:15.189Z,95.10
2022-11-10T00:42:43.216Z,95.80
2022-11-10T00:45:12.766Z,96.50
2022-11-10T00:47:40.601Z,95.60
2022-11-10T00:50:09.852Z,96.20
2022-11-10T00:52:37.847Z,96.10
2022-11-10T00:55:06.586Z,96.10
2022-11-10T00:57:34.611Z,94.20
2022-11-10T01:00:02.681Z,93.50
2022-11-10T01:02:31.987Z,90.30
2022-11-10T01:04:59.971Z,92.60
2022-11-10T01:07:27.944Z,92.50
2022-11-10T01:09:55.904Z,93.60
2022-11-10T01:12:23.896Z,94.00
2022-11-10T01:14:51.891Z,94.60
2022-11-10T01:17:19.933Z,94.70
2022-11-10T01:19:49.308Z,94.80
2022-11-10T01:22:17.335Z,96.00
2022-11-10T01:24:45.563Z,96.50
2022-11-10T01:27:13.553Z,97.30
2022-11-10T01:29:41.811Z,96.50
2022-11-10T01:32:10.006Z,96.90
2022-11-10T01:34:37.988Z,96.10
2022-11-10T01:37:07.330Z,96.70
2022-11-10T01:39:36.354Z,97.10
2022-11-10T01:42:04.488Z,97.20
2022-11-10T01:44:32.466Z,97.20
2022-11-10T01:47:00.470Z,97.20
2022-11-10T01:49:32.271Z,98.30
2022-11-10T01:52:04.416Z,98.70
2022-11-10T01:54:37.109Z,99.40
2022-11-10T01:57:08.927Z,99.20
2022-11-10T01:59:41.053Z,99.20
2022-11-10T02:02:14.988Z,99.30
2022-11-10T02:04:43.517Z,99.40
2022-11-10T02:07:12.937Z,99.30
2022-11-10T02:09:42.970Z,99.50
2022-11-10T02:12:12.032Z,99.90
2022-11-10T02:14:40.678Z,99.90
2022-11-10T02:17:09.405Z,99.90
2022-11-10T02:19:42.344Z,99.90
2022-11-10T02:22:11.901Z,99.90
2022-11-10T02:24:40.637Z,99.90
2022-11-10T02:27:08.644Z,99.90
2022-11-10T02:29:36.707Z,99.90
2022-11-10T02:32:05.107Z,99.90
2022-11-10T02:34:33.140Z,99.90
2022-11-10T02:37:01.222Z,99.90
2022-11-10T02:39:30.891Z,99.90
2022-11-10T02:41:58.994Z,99.90
2022-11-10T02:44:27.057Z,99.90
2022-11-10T02:46:55.111Z,99.90
2022-11-10T02:49:23.159Z,99.90
2022-11-10T02:51:51.263Z,99.90
2022-11-10T02:54:19.558Z,99.90
2022-11-10T02:56:49.138Z,99.90
2022-11-10T02:59:17.223Z,99.90
2022-11-10T03:01:45.365Z,99.90
2022-11-10T03:04:13.467Z,99.90
2022-11-10T03:06:41.523Z,99.90
2022-11-10T03:09:09.687Z,99.90
2022-11-10T03:11:37.739Z,99.90
2022-11-10T03:14:07.166Z,99.90
2022-11-10T03:16:35.087Z,99.90
2022-11-10T03:19:03.234Z,99.90
2022-11-10T03:21:31.285Z,99.90
2022-11-10T03:23:59.287Z,99.90
2022-11-10T03:26:27.422Z,99.90
2022-11-10T03:28:55.588Z,99.90
2022-11-10T03:31:25.066Z,99.90
2022-11-10T03:33:53.214Z,99.90
2022-11-10T03:36:22.458Z,99.90
2022-11-10T03:38:50.442Z,99.90
2022-11-10T03:41:20.256Z,99.90
2022-11-10T03:43:48.982Z,99.90
2022-11-10T03:46:17.780Z,99.90
2022-11-10T03:48:52.925Z,99.90
2022-11-10T03:51:22.494Z,99.90
2022-11-10T03:53:50.867Z,99.90
2022-11-10T03:56:18.987Z,99.90
2022-11-10T03:58:47.027Z,99.90
2022-11-10T04:01:15.094Z,99.90
2022-11-10T04:03:46.203Z,99.90
2022-11-10T04:06:36.018Z,99.90
2022-11-10T04:09:04.779Z,99.90
2022-11-10T04:11:50.716Z,99.90
2022-11-10T04:14:36.379Z,99.90
2022-11-10T04:17:05.028Z,99.90
2022-11-10T04:19:33.125Z,99.90
2022-11-10T04:22:02.639Z,99.90
2022-11-10T04:24:30.496Z,99.90
2022-11-10T04:26:58.462Z,99.90
2022-11-10T04:29:26.447Z,99.90
2022-11-10T04:31:54.431Z,99.90
2022-11-10T04:34:22.715Z,99.90
2022-11-10T04:36:50.719Z,99.90
2022-11-10T04:39:20.125Z,99.90
2022-11-10T04:41:48.730Z,99.90
2022-11-10T04:44:16.741Z,99.90
2022-11-10T04:46:45.434Z,99.90
2022-11-10T04:49:13.569Z,99.90
2022-11-10T04:51:41.811Z,99.90
2022-11-10T04:54:09.972Z,99.90
2022-11-10T04:56:40.165Z,99.90
2022-11-10T04:59:08.148Z,99.90
2022-11-10T05:01:36.199Z,99.90
2022-11-10T05:04:05.534Z,99.90
2022-11-10T05:06:33.632Z,99.90
2022-11-10T05:09:01.691Z,99.90
2022-11-10T05:11:29.698Z,99.90
2022-11-10T05:13:59.012Z,99.90
2022-11-10T05:16:27.011Z,99.90
2022-11-10T05:18:55.986Z,99.90
2022-11-10T05:21:24.082Z,99.90
2022-11-10T05:23:52.060Z,99.90
2022-11-10T05:26:20.272Z,99.90
2022-11-10T05:28:48.306Z,99.90
2022-11-10T05:31:17.631Z,99.90
2022-11-10T05:33:45.744Z,99.90
2022-11-10T05:36:13.668Z,99.90
2022-11-10T05:38:43.716Z,99.90
2022-11-10T05:41:12.542Z,99.90
2022-11-10T05:43:40.653Z,99.90
2022-11-10T05:46:08.668Z,99.90
2022-11-10T05:48:38.035Z,99.90
2022-11-10T05:51:06.386Z,99.90
2022-11-10T05:53:34.389Z,99.90
2022-11-10T05:56:02.381Z,99.90
2022-11-10T05:58:30.550Z,99.90
2022-11-10T06:00:58.537Z,99.90
2022-11-10T06:03:26.932Z,99.90
2022-11-10T06:05:56.987Z,99.90
2022-11-10T06:08:24.791Z,99.90
2022-11-10T06:10:52.815Z,99.90
2022-11-10T06:13:21.181Z,99.90
2022-11-10T06:15:50.693Z,99.90
2022-11-10T06:18:18.962Z,99.90
2022-11-10T06:20:47.525Z,99.90
2022-11-10T06:23:17.108Z,99.90
2022-11-10T06:25:45.585Z,99.90
2022-11-10T06:28:14.748Z,99.90
2022-11-10T06:30:42.839Z,99.90
2022-11-10T06:33:11.020Z,99.90
2022-11-10T06:35:39.203Z,99.90
2022-11-10T06:38:09.014Z,99.90
2022-11-10T06:40:38.586Z,99.90
2022-11-10T06:43:06.521Z,99.90
2022-11-10T06:45:34.508Z,99.90
2022-11-10T06:48:04.016Z,99.90
2022-11-10T06:50:32.093Z,99.90
2022-11-10T06:53:01.075Z,99.90
2022-11-10T06:55:29.738Z,99.90
2022-11-10T06:57:59.609Z,99.90
2022-11-10T07:00:29.711Z,99.90
2022-11-10T07:03:05.910Z,99.90
2022-11-10T07:05:35.398Z,99.90
2022-11-10T07:08:04.203Z,99.90
2022-11-10T07:10:32.405Z,99.90
2022-11-10T07:13:02.704Z,99.90
2022-11-10T07:15:31.401Z,99.90
2022-11-10T07:17:59.408Z,99.90
2022-11-10T07:20:28.497Z,99.90
2022-11-10T07:23:00.681Z,99.90
2022-11-10T07:25:30.534Z,99.90
2022-11-10T07:27:59.632Z,99.90
2022-11-10T07:30:29.999Z,99.90
2022-11-10T07:33:02.501Z,99.90
2022-11-10T07:35:31.098Z,99.90
2022-11-10T07:38:01.926Z,99.90
2022-11-10T07:40:30.080Z,99.90
2022-11-10T07:42:58.139Z,99.90
2022-11-10T07:45:26.247Z,99.90
2022-11-10T07:48:00.178Z,99.90
2022-11-10T07:50:28.261Z,99.90
2022-11-10T07:53:04.208Z,99.90
2022-11-10T07:55:32.274Z,99.90
2022-11-10T07:58:00.979Z,99.90
2022-11-10T08:00:29.496Z,99.90
2022-11-10T08:03:04.740Z,99.90
2022-11-10T08:05:33.493Z,99.90
2022-11-10T08:08:01.560Z,99.90
2022-11-10T08:10:30.333Z,99.90
2022-11-10T08:13:00.123Z,99.90
2022-11-10T08:15:30.039Z,99.90
2022-11-10T08:18:00.660Z,99.90
2022-11-10T08:20:30.676Z,99.90
2022-11-10T08:23:00.189Z,99.90
2022-11-10T08:25:34.240Z,99.90
2022-11-10T08:28:05.032Z,99.90
2022-11-10T08:30:33.406Z,99.60
2022-11-10T08:33:03.122Z,98.20
2022-11-10T08:35:35.359Z,99.40
2022-11-10T08:38:09.689Z,98.60
2022-11-10T08:40:38.350Z,96.10
2022-11-10T08:43:08.344Z,95.30
2022-11-10T08:45:36.769Z,94.20
2022-11-10T08:48:06.621Z,93.40
2022-11-10T08:50:36.187Z,92.80
2022-11-10T08:53:04.724Z,93.00
2022-11-10T08:55:32.742Z,95.90
2022-11-10T08:58:01.751Z,96.40
2022-11-10T09:00:30.419Z,94.50
2022-11-10T09:03:03.728Z,94.90
2022-11-10T09:05:31.954Z,94.20
2022-11-10T09:08:01.323Z,93.20
2022-11-10T09:10:29.388Z,92.00
2022-11-10T09:13:01.268Z,88.60
2022-11-10T09:15:29.903Z,90.80
2022-11-10T09:17:59.631Z,88.10
2022-11-10T09:20:28.753Z,86.00
2022-11-10T09:22:57.198Z,83.10
2022-11-10T09:25:26.580Z,80.30
2022-11-10T09:27:54.596Z,80.60
2022-11-10T09:30:22.688Z,81.00
2022-11-10T09:32:54.717Z,71.30
2022-11-10T09:35:23.503Z,72.40
2022-11-10T09:37:51.653Z,67.20
2022-11-10T09:40:23.414Z,68.40
2022-11-10T09:42:55.953Z,70.70
2022-11-10T09:45:27.759Z,62.60
2022-11-10T09:48:01.463Z,60.90
2022-11-10T09:50:35.694Z,62.40
2022-11-10T09:53:04.984Z,58.20
2022-11-10T09:55:39.532Z,57.70
2022-11-10T09:58:12.518Z,43.30
2022-11-10T10:00:43.517Z,49.70
2022-11-10T10:03:18.218Z,47.60
2022-11-10T10:05:56.690Z,47.00
2022-11-10T10:08:33.856Z,49.20
2022-11-10T10:11:11.892Z,43.80
2022-11-10T10:14:02.140Z,45.70
2022-11-10T10:16:37.299Z,47.00
2022-11-10T10:19:20.399Z,52.50
2022-11-10T10:22:03.519Z,50.70
2022-11-10T10:24:33.958Z,34.70
2022-11-10T10:27:06.080Z,39.60
2022-11-10T10:29:40.530Z,27.50
2022-11-10T10:32:12.766Z,1.00
2022-11-10T10:34:42.162Z,1.00
2022-11-10T10:37:23.940Z,1.00
2022-11-10T10:39:55.139Z,1.00
2022-11-10T10:42:32.041Z,1.00
2022-11-10T10:45:23.138Z,1.00
2022-11-10T10:47:52.880Z,1.00
2022-11-10T10:50:30.433Z,2.70
2022-11-10T10:53:18.978Z,4.00
2022-11-10T10:55:50.055Z,5.00
2022-11-10T10:58:25.462Z,1.30
2022-11-10T11:01:00.043Z,1.00
2022-11-10T11:03:31.479Z,1.00
2022-11-10T11:06:02.246Z,1.00
2022-11-10T11:08:30.264Z,1.00
2022-11-10T11:11:07.203Z,1.00
2022-11-10T11:13:35.200Z,1.00
2022-11-10T11:16:07.216Z,1.00
2022-11-10T11:18:38.952Z,1.00
2022-11-10T11:21:15.223Z,1.00
2022-11-10T11:23:59.355Z,1.00
2022-11-10T11:26:41.939Z,1.00
2022-11-10T11:29:19.824Z,1.00
2022-11-10T11:31:59.896Z,1.00
2022-11-10T11:34:37.962Z,99.90
2022-11-10T11:37:19.437Z,99.90
2022-11-10T11:39:58.034Z,99.90
2022-11-10T11:42:43.753Z,1.00
2022-11-10T11:45:21.662Z,99.90
2022-11-10T11:48:06.095Z,99.90
2022-11-10T11:50:41.338Z,99.90
2022-11-10T11:53:23.687Z,99.90
2022-11-10T11:56:05.319Z,99.90
2022-11-10T11:58:44.408Z,99.90
2022-11-10T12:01:23.906Z,99.90
2022-11-10T12:04:30.768Z,99.90
2022-11-10T12:07:09.425Z,99.90
2022-11-10T12:09:44.205Z,99.90
2022-11-10T12:12:31.287Z,99.90
2022-11-10T12:15:05.462Z,99.90
2022-11-10T12:17:43.519Z,99.90
2022-11-10T12:20:36.187Z,99.90
2022-11-10T12:23:16.184Z,99.90
2022-11-10T12:25:53.925Z,99.90
2022-11-10T12:28:26.683Z,99.90
2022-11-10T12:31:01.941Z,99.90
2022-11-10T12:33:37.727Z,99.90
2022-11-10T12:36:12.967Z,99.90
2022-11-10T12:38:59.500Z,99.90
2022-11-10T12:41:34.895Z,99.90
2022-11-10T12:44:09.188Z,99.90
2022-11-10T12:46:37.412Z,99.90
2022-11-10T12:49:17.898Z,1.00
2022-11-10T12:51:55.509Z,1.00
2022-11-10T12:54:27.040Z,99.90
2022-11-10T12:56:58.487Z,1.00
2022-11-10T12:59:30.917Z,1.00
2022-11-10T13:02:06.051Z,99.90
2022-11-10T13:04:36.007Z,99.90
2022-11-10T13:07:12.799Z,1.00
2022-11-10T13:09:43.804Z,99.90
2022-11-10T13:12:20.183Z,99.90
2022-11-10T13:14:49.063Z,99.90
2022-11-10T13:17:54.956Z,99.90
2022-11-10T13:20:51.794Z,99.90
2022-11-10T13:23:25.713Z,1.00
2022-11-10T13:25:55.837Z,1.00
2022-11-10T13:28:59.768Z,99.90
2022-11-10T13:31:52.896Z,99.90
2022-11-10T13:34:34.935Z,1.00
2022-11-10T13:37:04.570Z,99.90
2022-11-10T13:39:34.821Z,99.90
2022-11-10T13:42:20.479Z,99.90
2022-11-10T13:44:48.673Z,99.90
2022-11-10T13:47:47.173Z,99.90
2022-11-10T13:50:47.010Z,1.00
2022-11-10T13:53:29.852Z,99.90
2022-11-10T13:56:13.558Z,1.00
2022-11-10T13:58:44.415Z,1.00
2022-11-10T14:01:28.169Z,1.00
2022-11-10T14:04:02.035Z,1.00
2022-11-10T14:06:43.341Z,1.00
2022-11-10T14:09:26.916Z,1.00
2022-11-10T14:12:00.927Z,1.00
2022-11-10T14:14:35.747Z,1.00
2022-11-10T14:17:05.580Z,1.00
2022-11-10T14:19:40.084Z,1.00
2022-11-10T14:22:20.079Z,1.00
2022-11-10T14:24:55.367Z,1.00
2022-11-10T14:27:27.748Z,1.00
2022-11-10T14:30:21.289Z,1.00
2022-11-10T14:32:57.082Z,1.00
2022-11-10T14:35:27.848Z,1.00
2022-11-10T14:37:59.994Z,1.00
2022-11-10T14:40:29.223Z,1.00
2022-11-10T14:42:59.834Z,1.00
2022-11-10T14:45:29.761Z,1.00
2022-11-10T14:47:59.726Z,1.00
2022-11-10T14:50:29.140Z,1.00
2022-11-10T14:52:59.818Z,1.00
2022-11-10T14:55:30.714Z,1.00
2022-11-10T14:58:04.664Z,1.00
2022-11-10T15:00:37.076Z,1.00
2022-11-10T15:03:06.924Z,1.00
2022-11-10T15:05:35.249Z,1.00
2022-11-10T15:08:05.179Z,1.00
2022-11-10T15:10:46.283Z,1.00
2022-11-10T15:13:36.241Z,1.00
2022-11-10T15:16:25.352Z,1.00
2022-11-10T15:18:54.771Z,1.00
2022-11-10T15:21:27.535Z,1.00
2022-11-10T15:23:57.371Z,1.00
2022-11-10T15:26:28.419Z,1.00
2022-11-10T15:28:58.189Z,1.00
2022-11-10T15:31:28.273Z,1.00
2022-11-10T15:33:58.413Z,1.00
2022-11-10T15:36:32.017Z,1.00
2022-11-10T15:39:15.997Z,1.00
2022-11-10T15:41:46.178Z,1.00
2022-11-10T15:44:20.500Z,1.00
2022-11-10T15:46:49.523Z,1.00
2022-11-10T15:49:21.730Z,1.00
2022-11-10T15:51:50.377Z,1.00
2022-11-10T15:54:21.103Z,1.00
2022-11-10T15:56:49.222Z,1.00
2022-11-10T15:59:18.618Z,1.00
2022-11-10T16:01:46.845Z,1.00
2022-11-10T16:04:14.890Z,1.00
2022-11-10T16:06:43.236Z,1.00
2022-11-10T16:09:13.672Z,1.00
2022-11-10T16:11:45.601Z,1.00
2022-11-10T16:14:16.244Z,1.00
2022-11-10T16:16:45.904Z,1.00
2022-11-10T16:19:14.028Z,1.00
2022-11-10T16:21:42.030Z,1.00
2022-11-10T16:24:10.045Z,1.00
2022-11-10T16:26:38.182Z,1.00
2022-11-10T16:29:12.337Z,1.00
2022-11-10T16:31:40.349Z,1.00
2022-11-10T16:34:13.725Z,1.00
2022-11-10T16:36:42.923Z,1.00
2022-11-10T16:39:15.852Z,1.00
2022-11-10T16:41:44.363Z,1.00
2022-11-10T16:44:13.730Z,1.00
2022-11-10T16:46:43.069Z,1.00
2022-11-10T16:49:28.480Z,1.00
2022-11-10T16:51:56.479Z,1.00
2022-11-10T16:54:24.495Z,1.00
2022-11-10T16:56:52.455Z,1.00
2022-11-10T16:59:20.460Z,1.00
2022-11-10T17:01:49.547Z,1.00
2022-11-10T17:04:19.043Z,1.00
2022-11-10T17:06:47.088Z,1.00
2022-11-10T17:09:18.661Z,1.00
2022-11-10T17:11:46.769Z,1.00
2022-11-10T17:14:16.418Z,1.00
2022-11-10T17:16:46.412Z,1.00
2022-11-10T17:19:23.407Z,1.00
2022-11-10T17:21:53.894Z,1.00
2022-11-10T17:24:22.070Z,1.00
2022-11-10T17:26:50.092Z,1.00
2022-11-10T17:29:19.174Z,1.00
2022-11-10T17:31:47.358Z,1.00
2022-11-10T17:34:15.343Z,1.00
2022-11-10T17:36:44.823Z,1.00
2022-11-10T17:39:14.811Z,1.00
2022-11-10T17:41:42.832Z,1.00
2022-11-10T17:44:14.555Z,1.00
2022-11-10T17:46:42.697Z,1.00
2022-11-10T17:49:10.717Z,1.00
2022-11-10T17:51:40.388Z,1.00
2022-11-10T17:54:14.344Z,1.00
2022-11-10T17:56:42.780Z,1.00
2022-11-10T17:59:10.797Z,1.00
2022-11-10T18:01:38.906Z,3.80
2022-11-10T18:04:06.919Z,11.00
2022-11-10T18:06:34.951Z,12.00
2022-11-10T18:09:02.983Z,16.20
2022-11-10T18:11:32.319Z,19.70
2022-11-10T18:14:02.339Z,19.70
2022-11-10T18:16:30.356Z,23.50
2022-11-10T18:18:58.720Z,22.60
2022-11-10T18:21:26.715Z,25.90
2022-11-10T18:23:54.778Z,28.10
2022-11-10T18:26:22.791Z,28.40
2022-11-10T18:28:52.187Z,35.60
2022-11-10T18:31:20.158Z,34.40
2022-11-10T18:33:48.222Z,41.60
2022-11-10T18:36:16.229Z,35.30
2022-11-10T18:38:44.461Z,39.70
2022-11-10T18:41:30.208Z,39.70
2022-11-10T18:43:59.520Z,45.80
2022-11-10T18:46:27.508Z,44.20
2022-11-10T18:48:55.517Z,48.60
2022-11-10T18:51:23.544Z,40.90
2022-11-10T18:53:51.649Z,42.40
2022-11-10T18:56:21.274Z,39.10
2022-11-10T18:58:56.230Z,37.10
2022-11-10T19:01:26.668Z,39.20
2022-11-10T19:03:55.123Z,44.90
2022-11-10T19:06:23.123Z,45.40
2022-11-10T19:08:51.644Z,44.00
2022-11-10T19:11:20.796Z,48.80
2022-11-10T19:13:48.993Z,43.60
2022-11-10T19:16:18.944Z,51.50
2022-11-10T19:18:48.378Z,62.30
2022-11-10T19:21:18.202Z,65.40
2022-11-10T19:23:46.821Z,66.80
2022-11-10T19:26:21.881Z,71.50
2022-11-10T19:28:50.392Z,66.40
2022-11-10T19:31:22.609Z,58.30
2022-11-10T19:33:54.534Z,67.20
2022-11-10T19:36:24.674Z,72.30
2022-11-10T19:38:54.491Z,73.60
2022-11-10T19:41:24.150Z,79.80
2022-11-10T19:43:52.280Z,81.50
2022-11-10T19:46:25.706Z,79.50
2022-11-10T19:48:56.423Z,84.40
2022-11-10T19:51:25.650Z,85.50
2022-11-10T19:53:58.380Z,85.10
2022-11-10T19:56:31.457Z,79.70
2022-11-10T19:59:00.276Z,78.60
2022-11-10T20:01:28.349Z,77.80
2022-11-10T20:03:57.727Z,75.00
2022-11-10T20:06:26.053Z,73.70
2022-11-10T20:08:54.111Z,71.10
2022-11-10T20:11:24.177Z,70.70
2022-11-10T20:13:55.238Z,77.80
2022-11-10T20:16:23.849Z,81.40
2022-11-10T20:18:51.958Z,86.20
2022-11-10T20:21:23.572Z,86.40
2022-11-10T20:23:55.494Z,86.20
2022-11-10T20:26:24.627Z,86.00
2022-11-10T20:28:52.986Z,86.90
2022-11-10T20:31:24.019Z,88.50
2022-11-10T20:33:53.433Z,86.60
2022-11-10T20:36:25.943Z,83.80
2022-11-10T20:38:55.636Z,85.70
2022-11-10T20:41:24.120Z,87.80
2022-11-10T20:43:52.767Z,87.30
2022-11-10T20:46:48.293Z,89.30
2022-11-10T20:49:10.124Z,88.30
2022-11-10T20:51:39.454Z,91.70
2022-11-10T20:54:08.594Z,91.70
2022-11-10T20:56:36.597Z,91.20
2022-11-10T20:59:04.669Z,91.00
2022-11-10T21:01:33.509Z,90.30
2022-11-10T21:04:02.461Z,91.00
2022-11-10T21:06:30.472Z,89.40
2022-11-10T21:08:59.861Z,85.40
2022-11-10T21:11:45.351Z,84.60
2022-11-10T21:14:13.651Z,87.60
2022-11-10T21:16:41.630Z,86.80
2022-11-10T21:19:09.676Z,85.70
2022-11-10T21:21:37.679Z,87.90
2022-11-10T21:24:08.160Z,88.70
2022-11-10T21:26:37.636Z,91.30
2022-11-10T21:29:07.630Z,91.70
2022-11-10T21:31:35.882Z,91.80
2022-11-10T21:34:03.929Z,91.90
2022-11-10T21:36:31.926Z,90.90
2022-11-10T21:39:01.100Z,90.60
2022-11-10T21:41:30.422Z,88.70
2022-11-10T21:43:58.661Z,89.30
2022-11-10T21:46:26.736Z,91.60
2022-11-10T21:48:54.794Z,92.40
2022-11-10T21:51:22.867Z,94.00
2022-11-10T21:53:50.916Z,92.70
2022-11-10T21:56:18.917Z,92.70
2022-11-10T21:58:48.399Z,92.10
2022-11-10T22:01:19.368Z,91.70
2022-11-10T22:03:47.752Z,94.30
2022-11-10T22:06:17.608Z,94.20
2022-11-10T22:08:48.010Z,94.00
2022-11-10T22:11:34.870Z,93.50
2022-11-10T22:14:29.099Z,95.10
2022-11-10T22:17:22.959Z,95.80
2022-11-10T22:19:51.009Z,95.40
2022-11-10T22:22:19.039Z,93.80
2022-11-10T22:24:47.037Z,92.40
2022-11-10T22:27:15.014Z,92.30
2022-11-10T22:29:44.836Z,92.20
2022-11-10T22:32:12.875Z,92.30
2022-11-10T22:34:40.871Z,91.40
2022-11-10T22:37:08.842Z,91.70
2022-11-10T22:39:54.307Z,91.20
2022-11-10T22:42:39.908Z,91.70
2022-11-10T22:45:10.138Z,90.70
2022-11-10T22:47:52.019Z,92.10
2022-11-10T22:50:20.017Z,93.70
2022-11-10T22:52:48.003Z,94.40
2022-11-10T22:55:16.149Z,95.50
2022-11-10T22:57:44.164Z,95.90
2022-11-10T23:00:15.555Z,95.90
2022-11-10T23:02:43.601Z,97.30
2022-11-10T23:05:11.590Z,97.00
2022-11-10T23:07:39.638Z,97.00
2022-11-10T23:10:08.815Z,95.90
2022-11-10T23:12:36.804Z,96.00
2022-11-10T23:15:05.179Z,95.20
2022-11-10T23:17:34.552Z,94.90
2022-11-10T23:20:02.586Z,95.00
2022-11-10T23:22:30.640Z,94.90
2022-11-10T23:24:58.648Z,94.60
2022-11-10T23:27:26.649Z,94.80
2022-11-10T23:29:54.643Z,95.40
2022-11-10T23:32:22.601Z,95.70
2022-11-10T23:34:51.962Z,94.00
2022-11-10T23:37:20.959Z,94.30
2022-11-10T23:39:48.977Z,94.70
2022-11-10T23:42:16.984Z,94.70
2022-11-10T23:44:45.008Z,94.50
2022-11-10T23:47:12.999Z,93.90
2022-11-10T23:49:40.997Z,95.20
2022-11-10T23:52:10.339Z,96.10
2022-11-10T23:54:38.351Z,97.00
2022-11-10T23:57:06.344Z,96.80
2022-11-10T23:59:34.334Z,97.30
